Time;durP1;ratioP1;P1;durP2;ratioP2;P2;SDS_P1;SDS_P2;PMS_P1;PMS_P2;Temp;Humidity;BMP_temperature;BMP_pressure;BME280_temperature;BME280_humidity;BME280_pressure;Samples;Min_cycle;Max_cycle;Signal;HPM_P1;HPM_P2
2023/04/05 00:01:33;;;;;;;6.47;5.97;;;1.20;1.00;;;;;;5094510;28;20185;-67
2023/04/05 00:03:59;;;;;;;5.90;5.43;;;1.20;1.00;;;;;;5095036;28;20180;-66
2023/04/05 00:06:27;;;;;;;7.07;4.80;;;1.10;1.00;;;;;;5094724;28;20430;-67
2023/04/05 00:09:02;;;;;;;7.77;6.37;;;1.10;1.00;;;;;;5094899;28;20400;-67
2023/04/05 00:11:29;;;;;;;7.07;5.37;;;1.10;1.00;;;;;;5094315;28;20399;-66
2023/04/05 00:13:56;;;;;;;7.10;6.03;;;1.10;1.00;;;;;;5093836;28;20486;-66
2023/04/05 00:16:21;;;;;;;5.60;5.10;;;1.10;1.00;;;;;;5094695;28;20896;-67
2023/04/05 00:18:50;;;;;;;10.70;6.50;;;1.10;1.00;;;;;;5094727;28;20410;-66
2023/04/05 00:21:20;;;;;;;4.90;4.50;;;1.10;1.00;;;;;;5093998;28;20395;-67
2023/04/05 00:23:50;;;;;;;7.40;6.13;;;1.00;1.00;;;;;;5094592;28;20787;-66
2023/04/05 00:26:17;;;;;;;12.07;5.80;;;1.00;1.00;;;;;;5094746;28;20422;-67
2023/04/05 00:28:43;;;;;;;5.80;5.30;;;1.00;1.00;;;;;;5094513;28;20815;-67
2023/04/05 00:31:09;;;;;;;8.17;5.93;;;1.00;1.00;;;;;;5093852;28;20408;-67
2023/04/05 00:33:35;;;;;;;7.60;5.43;;;1.10;1.00;;;;;;5093884;28;20527;-67
2023/04/05 00:36:18;;;;;;;12.83;6.37;;;1.00;1.00;;;;;;5093935;28;20509;-67
2023/04/05 00:38:46;;;;;;;11.53;5.57;;;1.10;1.00;;;;;;5094284;28;20200;-67
2023/04/05 00:41:12;;;;;;;7.37;6.13;;;1.10;1.00;;;;;;5093709;28;20400;-67
2023/04/05 00:43:39;;;;;;;7.38;5.35;;;1.10;1.00;;;;;;5094341;28;20804;-67
2023/04/05 00:46:05;;;;;;;6.83;6.17;;;1.10;1.00;;;;;;5094343;28;20255;-67
2023/04/05 00:48:32;;;;;;;8.67;6.33;;;1.10;1.00;;;;;;5094147;28;20608;-67
2023/04/05 00:50:58;;;;;;;7.90;6.20;;;1.10;1.00;;;;;;5093337;28;20897;-67
2023/04/05 00:53:26;;;;;;;8.57;5.50;;;1.10;1.00;;;;;;5093609;28;20439;-67
2023/04/05 00:55:52;;;;;;;6.97;5.90;;;1.10;1.00;;;;;;5093392;28;20219;-66
2023/04/05 00:58:20;;;;;;;6.47;5.20;;;1.10;1.00;;;;;;5094019;28;20399;-66
2023/04/05 01:01:05;;;;;;;7.30;5.97;;;1.00;1.00;;;;;;5093572;28;20464;-66
2023/04/05 01:03:33;;;;;;;11.70;6.67;;;1.10;1.00;;;;;;5093956;28;20500;-66
2023/04/05 01:06:10;;;;;;;6.70;6.00;;;1.10;1.00;;;;;;5093802;28;20446;-67
2023/04/05 01:09:00;;;;;;;17.57;5.80;;;1.00;1.00;;;;;;5093796;28;20439;-67
2023/04/05 01:11:27;;;;;;;17.97;5.30;;;1.00;1.00;;;;;;5091658;28;20399;-66
2023/04/05 01:14:00;;;;;;;7.47;6.38;;;1.00;1.00;;;;;;5093537;28;20866;-67
2023/04/05 01:16:26;;;;;;;6.93;6.07;;;0.90;1.00;;;;;;5093709;28;20201;-67
2023/04/05 01:18:55;;;;;;;5.60;5.18;;;0.80;1.00;;;;;;5093707;28;20404;-67
2023/04/05 01:21:32;;;;;;;8.25;5.20;;;0.80;1.00;;;;;;5092878;28;20526;-66
2023/04/05 01:24:19;;;;;;;6.65;5.30;;;0.80;1.00;;;;;;5093659;28;20161;-66
2023/04/05 01:26:51;;;;;;;8.03;5.50;;;0.90;1.00;;;;;;5093476;28;20189;-67
2023/04/05 01:29:32;;;;;;;6.70;5.83;;;0.90;1.00;;;;;;5092797;28;20400;-67
2023/04/05 01:32:28;;;;;;;10.43;5.80;;;1.00;1.00;;;;;;5092712;28;20419;-67
2023/04/05 01:35:00;;;;;;;10.40;6.40;;;1.10;1.00;;;;;;5069559;28;20415;-66
2023/04/05 01:37:31;;;;;;;9.50;5.73;;;1.20;1.00;;;;;;5093371;28;20403;-66
2023/04/05 01:39:58;;;;;;;7.33;6.40;;;1.10;1.00;;;;;;5093052;28;20410;-66
2023/04/05 01:42:25;;;;;;;6.50;5.03;;;1.10;1.00;;;;;;5092741;28;20419;-66
2023/04/05 01:44:55;;;;;;;5.67;5.17;;;1.10;1.00;;;;;;5092660;28;20399;-65
2023/04/05 01:47:21;;;;;;;9.93;4.80;;;1.20;1.00;;;;;;5092815;28;20839;-65
2023/04/05 01:49:47;;;;;;;6.33;5.00;;;1.20;1.00;;;;;;5093120;28;20408;-65
2023/04/05 01:52:12;;;;;;;7.00;5.30;;;1.30;1.00;;;;;;5092514;28;20211;-65
2023/04/05 01:54:38;;;;;;;6.83;6.10;;;1.30;1.00;;;;;;5093163;28;20402;-65
2023/04/05 01:57:04;;;;;;;7.10;6.43;;;1.30;1.00;;;;;;5093130;28;20907;-65
2023/04/05 01:59:30;;;;;;;6.70;6.07;;;1.30;1.00;;;;;;5093060;28;20169;-65
2023/04/05 02:01:56;;;;;;;9.23;5.90;;;1.30;1.00;;;;;;5092089;28;20481;-65
2023/04/05 02:04:22;;;;;;;7.43;5.80;;;1.40;1.00;;;;;;5092434;28;20756;-64
2023/04/05 02:06:47;;;;;;;7.53;4.83;;;1.50;1.00;;;;;;5074976;28;20240;-64
2023/04/05 02:09:13;;;;;;;10.70;5.33;;;1.50;1.00;;;;;;5092995;28;20169;-66
2023/04/05 02:11:39;;;;;;;11.30;5.00;;;1.50;1.00;;;;;;5092152;28;20192;-65
2023/04/05 02:14:05;;;;;;;6.70;5.73;;;1.50;1.00;;;;;;5093169;28;20546;-66
2023/04/05 02:16:33;;;;;;;8.03;5.87;;;1.70;1.00;;;;;;5092938;28;20164;-65
2023/04/05 02:18:59;;;;;;;6.53;5.87;;;1.70;1.00;;;;;;5092933;28;20423;-65
2023/04/05 02:21:25;;;;;;;8.40;6.40;;;1.80;1.00;;;;;;5092193;28;20388;-65
2023/04/05 02:23:52;;;;;;;7.63;5.50;;;1.80;1.00;;;;;;5095762;28;20396;-65
2023/04/05 02:26:18;;;;;;;7.77;4.67;;;1.80;1.00;;;;;;5096907;28;20415;-65
2023/04/05 02:28:43;;;;;;;8.00;5.60;;;1.80;1.00;;;;;;5096986;28;20443;-64
2023/04/05 02:31:10;;;;;;;6.70;5.20;;;1.80;1.00;;;;;;5096156;28;20169;-65
2023/04/05 02:33:37;;;;;;;6.67;6.03;;;1.80;1.00;;;;;;5078421;28;20665;-65
2023/04/05 02:36:08;;;;;;;7.93;6.17;;;1.80;1.00;;;;;;5096786;28;20411;-65
2023/04/05 02:38:34;;;;;;;8.63;5.60;;;1.70;1.00;;;;;;5096622;28;20407;-65
2023/04/05 02:41:00;;;;;;;7.13;6.27;;;1.70;1.00;;;;;;5095134;28;20408;-65
2023/04/05 02:43:26;;;;;;;6.57;5.40;;;1.70;1.00;;;;;;5096651;28;20449;-65
2023/04/05 02:45:51;;;;;;;8.90;5.30;;;1.70;1.00;;;;;;5096361;28;20169;-65
2023/04/05 02:48:17;;;;;;;13.93;6.50;;;1.70;1.00;;;;;;5096468;28;20851;-65
2023/04/05 02:50:52;;;;;;;8.90;5.73;;;1.90;1.00;;;;;;5095885;28;20166;-65
2023/04/05 02:53:17;;;;;;;5.70;5.20;;;1.80;1.00;;;;;;5096238;28;20216;-65
2023/04/05 02:55:54;;;;;;;6.67;5.40;;;1.80;1.00;;;;;;5096329;28;20420;-65
2023/04/05 02:58:20;;;;;;;8.47;6.10;;;1.80;1.00;;;;;;5095500;28;20161;-65
2023/04/05 03:00:49;;;;;;;7.73;6.23;;;1.90;1.00;;;;;;5095810;28;20414;-65
2023/04/05 03:03:18;;;;;;;7.07;5.77;;;1.90;1.00;;;;;;5096072;28;20455;-65
2023/04/05 03:05:45;;;;;;;10.73;5.40;;;1.90;1.00;;;;;;5096105;28;20409;-65
2023/04/05 03:08:18;;;;;;;6.30;5.70;;;2.00;1.00;;;;;;5096093;28;20446;-65
2023/04/05 03:10:47;;;;;;;9.70;5.50;;;2.00;1.00;;;;;;5095644;28;20403;-65
2023/04/05 03:13:13;;;;;;;8.13;6.47;;;2.00;1.00;;;;;;5095970;28;20430;-65
2023/04/05 03:15:40;;;;;;;11.20;7.40;;;2.10;1.00;;;;;;5095962;28;20750;-65
2023/04/05 03:18:06;;;;;;;7.00;6.30;;;2.10;1.00;;;;;;5094991;28;20880;-65
2023/04/05 03:20:38;;;;;;;8.13;6.40;;;2.10;1.00;;;;;;5095178;28;20395;-65
2023/04/05 03:23:07;;;;;;;10.10;5.80;;;2.00;1.00;;;;;;5095719;28;20424;-65
2023/04/05 03:25:35;;;;;;;7.50;6.57;;;2.00;1.00;;;;;;5095711;28;20876;-65
2023/04/05 03:28:05;;;;;;;5.83;5.33;;;2.00;1.00;;;;;;5095682;28;20773;-65
2023/04/05 03:30:34;;;;;;;8.00;6.60;;;2.00;1.00;;;;;;5095015;28;20476;-65
2023/04/05 03:33:01;;;;;;;9.30;6.57;;;2.00;1.00;;;;;;5095620;28;20822;-65
2023/04/05 03:35:28;;;;;;;8.53;7.83;;;2.00;1.00;;;;;;5094237;28;20407;-65
2023/04/05 03:37:55;;;;;;;7.47;6.83;;;2.00;1.00;;;;;;5095534;28;20399;-65
2023/04/05 03:40:22;;;;;;;8.30;6.97;;;2.00;1.00;;;;;;5094711;28;20894;-65
2023/04/05 03:42:48;;;;;;;10.57;6.03;;;2.10;1.00;;;;;;5095622;28;20427;-66
2023/04/05 03:45:13;;;;;;;7.33;6.50;;;2.20;1.00;;;;;;5095382;28;20457;-65
2023/04/05 03:47:39;;;;;;;7.50;5.93;;;2.20;1.00;;;;;;5095392;28;20239;-65
2023/04/05 03:50:06;;;;;;;7.83;6.63;;;2.30;1.00;;;;;;5094776;28;20766;-65
2023/04/05 03:52:32;;;;;;;9.03;6.90;;;2.30;1.00;;;;;;5095128;28;20244;-65
2023/04/05 03:54:58;;;;;;;7.70;6.37;;;2.30;1.00;;;;;;5076180;28;20459;-65
2023/04/05 03:57:24;;;;;;;17.00;7.43;;;2.30;1.00;;;;;;5095270;28;20205;-65
2023/04/05 03:59:50;;;;;;;8.87;7.50;;;2.40;1.00;;;;;;5094804;28;20177;-65
2023/04/05 04:02:15;;;;;;;8.47;7.67;;;2.40;1.00;;;;;;5094410;28;20437;-65
2023/04/05 04:04:41;;;;;;;10.60;7.90;;;2.40;1.00;;;;;;5095244;28;20166;-66
2023/04/05 04:07:07;;;;;;;9.03;6.87;;;2.30;1.00;;;;;;5094893;28;20722;-65
2023/04/05 04:09:32;;;;;;;16.33;8.20;;;2.30;1.00;;;;;;5093619;28;20553;-65
2023/04/05 04:11:58;;;;;;;11.90;7.27;;;2.20;1.00;;;;;;5093562;28;20190;-66
2023/04/05 04:14:24;;;;;;;20.67;7.83;;;2.10;1.00;;;;;;5094761;28;20204;-65
2023/04/05 04:16:50;;;;;;;8.70;7.67;;;2.00;1.00;;;;;;5094934;28;20197;-65
2023/04/05 04:19:17;;;;;;;7.70;7.00;;;2.00;1.00;;;;;;5094811;28;20170;-65
2023/04/05 04:21:44;;;;;;;8.70;6.97;;;1.90;1.00;;;;;;5094114;28;20212;-65
2023/04/05 04:24:17;;;;;;;8.37;7.27;;;1.90;1.00;;;;;;5094900;28;20741;-65
2023/04/05 04:26:44;;;;;;;7.60;6.37;;;1.80;1.00;;;;;;5094521;28;20404;-67
2023/04/05 04:29:11;;;;;;;11.83;8.93;;;1.80;1.00;;;;;;5094354;28;20423;-65
2023/04/05 04:31:38;;;;;;;8.13;6.80;;;1.70;1.00;;;;;;5092925;28;20419;-65
2023/04/05 04:34:04;;;;;;;10.90;7.90;;;1.70;1.00;;;;;;5094556;28;20763;-65
2023/04/05 04:36:33;;;;;;;18.37;7.90;;;1.70;1.00;;;;;;5094375;28;20943;-64
2023/04/05 04:39:04;;;;;;;11.27;8.70;;;1.60;1.00;;;;;;5094402;28;20399;-65
2023/04/05 04:41:32;;;;;;;10.83;8.67;;;1.60;1.00;;;;;;5093459;28;20409;-65
2023/04/05 04:44:01;;;;;;;12.40;8.70;;;1.60;1.00;;;;;;5094294;28;20450;-65
2023/04/05 04:46:33;;;;;;;9.80;8.63;;;1.50;1.00;;;;;;5093137;28;20403;-65
2023/04/05 04:49:04;;;;;;;14.03;8.57;;;1.40;1.00;;;;;;5093356;28;20408;-67
2023/04/05 04:51:31;;;;;;;10.97;8.10;;;1.30;1.00;;;;;;5092981;28;20423;-65
2023/04/05 04:53:57;;;;;;;11.07;8.10;;;1.30;1.00;;;;;;5094051;28;20407;-65
2023/04/05 04:56:22;;;;;;;19.83;13.37;;;1.20;1.00;;;;;;5094087;28;20768;-65
2023/04/05 04:58:48;;;;;;;12.57;9.80;;;1.20;1.00;;;;;;5093944;28;20180;-65
2023/04/05 05:01:14;;;;;;;13.83;9.27;;;1.20;1.00;;;;;;5093259;28;20165;-65
2023/04/05 05:03:39;;;;;;;12.13;9.27;;;1.20;1.00;;;;;;5093767;28;20188;-65
2023/04/05 05:06:05;;;;;;;11.43;8.97;;;1.30;1.00;;;;;;5093907;28;20169;-65
2023/04/05 05:08:31;;;;;;;10.60;8.90;;;1.30;1.00;;;;;;5092953;28;20539;-65
2023/04/05 05:10:57;;;;;;;11.50;8.67;;;1.30;1.00;;;;;;5092553;28;20487;-65
2023/04/05 05:13:23;;;;;;;11.10;9.50;;;1.40;1.00;;;;;;5093688;28;20639;-65
2023/04/05 05:15:48;;;;;;;12.40;10.47;;;1.40;1.00;;;;;;5093592;28;20170;-66
2023/04/05 05:18:14;;;;;;;10.57;8.80;;;1.40;1.00;;;;;;5093608;28;20174;-65
2023/04/05 05:20:41;;;;;;;11.93;10.40;;;1.40;1.00;;;;;;5092988;28;20217;-65
2023/04/05 05:23:07;;;;;;;12.07;10.17;;;1.40;1.00;;;;;;5093430;28;20853;-65
2023/04/05 05:25:33;;;;;;;10.67;9.33;;;1.30;1.00;;;;;;5093039;28;20450;-65
2023/04/05 05:27:58;;;;;;;10.90;9.80;;;1.30;1.00;;;;;;5093185;28;20255;-65
2023/04/05 05:30:25;;;;;;;11.90;9.43;;;1.30;1.00;;;;;;5092833;28;20166;-65
2023/04/05 05:32:51;;;;;;;13.07;10.03;;;1.30;1.00;;;;;;5093370;28;20189;-65
2023/04/05 05:35:17;;;;;;;11.80;8.40;;;1.30;1.00;;;;;;5093326;28;20410;-65
2023/04/05 05:37:43;;;;;;;13.20;9.53;;;1.30;1.00;;;;;;5093147;28;20403;-65
2023/04/05 05:40:14;;;;;;;10.80;9.60;;;1.20;1.00;;;;;;5093043;28;20550;-67
2023/04/05 05:42:39;;;;;;;11.52;8.77;;;1.10;1.00;;;;;;5093093;28;20419;-70
2023/04/05 05:45:06;;;;;;;11.70;9.07;;;0.90;1.00;;;;;;5074643;28;20584;-68
2023/04/05 05:47:31;;;;;;;10.57;9.47;;;0.90;1.00;;;;;;5093209;28;20280;-68
2023/04/05 05:49:57;;;;;;;8.97;7.97;;;0.90;1.00;;;;;;5093009;28;20487;-68
2023/04/05 05:52:23;;;;;;;27.87;9.17;;;0.90;1.00;;;;;;5092521;28;20431;-67
2023/04/05 05:54:49;;;;;;;11.50;8.90;;;1.00;1.00;;;;;;5093374;28;20166;-67
2023/04/05 05:57:15;;;;;;;17.97;9.40;;;1.00;1.00;;;;;;5092705;28;20400;-67
2023/04/05 05:59:40;;;;;;;14.90;9.97;;;1.10;1.00;;;;;;5092874;28;20192;-67
2023/04/05 06:02:07;;;;;;;15.53;9.43;;;1.10;1.00;;;;;;5091890;28;20197;-65
2023/04/05 06:04:33;;;;;;;13.60;10.80;;;1.20;1.00;;;;;;5093058;28;20181;-65
2023/04/05 06:07:00;;;;;;;11.83;8.37;;;1.10;1.00;;;;;;5093023;28;20441;-66
2023/04/05 06:09:27;;;;;;;9.67;8.67;;;1.10;1.00;;;;;;5093001;28;20933;-67
2023/04/05 06:11:53;;;;;;;11.57;8.60;;;1.10;1.00;;;;;;5074218;28;20472;-67
2023/04/05 06:14:19;;;;;;;12.77;9.77;;;1.30;1.00;;;;;;5093041;28;20436;-67
2023/04/05 06:16:45;;;;;;;11.30;9.27;;;1.40;1.00;;;;;;5093108;28;20958;-67
2023/04/05 06:19:11;;;;;;;14.43;10.20;;;1.50;5.30;;;;;;5092831;28;20392;-65
2023/04/05 06:21:36;;;;;;;12.67;9.90;;;1.80;20.10;;;;;;5091334;28;20186;-67
2023/04/05 06:24:02;;;;;;;9.93;8.93;;;2.00;33.90;;;;;;5093118;28;20212;-67
2023/04/05 06:26:29;;;;;;;15.30;11.43;;;2.10;47.10;;;;;;5092939;28;20161;-65
2023/04/05 06:28:55;;;;;;;11.50;9.63;;;2.30;59.40;;;;;;5092737;28;20800;-65
2023/04/05 06:31:29;;;;;;;11.20;10.10;;;2.40;65.70;;;;;;5092168;28;20495;-65
2023/04/05 06:33:55;;;;;;;10.43;8.57;;;2.50;67.00;;;;;;5092668;28;20448;-66
2023/04/05 06:36:21;;;;;;;12.67;9.60;;;2.60;71.50;;;;;;5092836;28;20388;-65
2023/04/05 06:38:46;;;;;;;10.80;9.70;;;2.70;76.10;;;;;;5092658;28;20257;-67
2023/04/05 06:41:12;;;;;;;13.83;9.63;;;2.80;89.10;;;;;;5073128;28;20585;-65
2023/04/05 06:43:38;;;;;;;12.43;10.10;;;2.90;90.00;;;;;;5092473;28;20201;-65
2023/04/05 06:46:07;;;;;;;14.53;10.00;;;3.00;87.90;;;;;;5074690;28;20169;-65
2023/04/05 06:48:33;;;;;;;10.53;9.43;;;2.90;78.90;;;;;;5092507;28;20243;-66
2023/04/05 06:51:00;;;;;;;11.37;10.17;;;3.00;82.50;;;;;;5091945;28;20392;-66
2023/04/05 06:53:27;;;;;;;10.80;9.70;;;3.10;89.90;;;;;;5092494;28;20470;-68
2023/04/05 06:55:57;;;;;;;12.33;8.73;;;3.20;90.10;;;;;;5092526;28;20397;-67
2023/04/05 06:58:24;;;;;;;22.13;9.90;;;3.40;90.10;;;;;;5092517;28;20392;-68
2023/04/05 07:00:50;;;;;;;17.63;10.60;;;3.50;90.20;;;;;;5091318;28;20401;-68
2023/04/05 07:03:17;;;;;;;9.17;8.27;;;3.60;90.20;;;;;;5074450;28;20951;-67
2023/04/05 07:05:50;;;;;;;15.40;9.93;;;3.70;90.20;;;;;;5092507;28;20402;-68
2023/04/05 07:08:17;;;;;;;11.40;9.10;;;3.90;90.30;;;;;;5092418;28;20967;-68
2023/04/05 07:10:43;;;;;;;10.10;8.63;;;4.00;90.30;;;;;;5095154;28;20397;-67
2023/04/05 07:13:09;;;;;;;18.97;9.20;;;4.10;90.40;;;;;;5096028;28;20419;-68
2023/04/05 07:15:34;;;;;;;13.90;8.80;;;4.30;90.50;;;;;;5096031;28;20166;-67
2023/04/05 07:18:00;;;;;;;14.50;8.13;;;4.30;79.80;;;;;;5094975;28;20522;-68
2023/04/05 07:20:26;;;;;;;10.47;8.73;;;4.40;72.10;;;;;;5095294;28;20644;-68
2023/04/05 07:22:51;;;;;;;13.43;8.00;;;4.50;69.30;;;;;;5095968;28;20188;-68
2023/04/05 07:25:17;;;;;;;10.50;9.60;;;4.60;69.30;;;;;;5077669;28;20168;-68
2023/04/05 07:27:43;;;;;;;10.90;8.27;;;4.70;55.70;;;;;;5095718;28;20196;-68
2023/04/05 07:30:09;;;;;;;10.97;8.50;;;4.80;41.90;;;;;;5095064;28;20634;-69
2023/04/05 07:32:35;;;;;;;16.43;7.93;;;4.80;27.50;;;;;;5095684;28;20187;-68
2023/04/05 07:35:01;;;;;;;9.20;7.87;;;5.00;13.50;;;;;;5094719;28;20914;-68
2023/04/05 07:37:27;;;;;;;10.23;8.57;;;5.10;8.70;;;;;;5095667;28;20164;-68
2023/04/05 07:39:53;;;;;;;11.10;9.10;;;5.20;4.10;;;;;;5095476;28;20475;-68
2023/04/05 07:42:20;;;;;;;7.67;6.93;;;5.30;1.00;;;;;;5095040;28;20274;-68
2023/04/05 07:44:46;;;;;;;10.87;8.30;;;5.30;1.00;;;;;;5095579;28;20165;-69
2023/04/05 07:47:12;;;;;;;12.13;9.07;;;5.50;1.30;;;;;;5095411;28;20588;-68
2023/04/05 07:49:38;;;;;;;9.40;7.20;;;5.60;1.00;;;;;;5095466;28;20874;-68
2023/04/05 07:52:05;;;;;;;14.27;8.97;;;5.60;1.00;;;;;;5094613;28;20589;-68
2023/04/05 07:54:32;;;;;;;11.57;8.60;;;5.80;1.00;;;;;;5094482;28;20165;-68
2023/04/05 07:56:59;;;;;;;8.83;8.00;;;5.90;1.00;;;;;;5095087;28;20388;-68
2023/04/05 07:59:26;;;;;;;9.03;8.13;;;6.00;1.00;;;;;;5095349;28;20400;-69
2023/04/05 08:01:51;;;;;;;20.37;9.90;;;6.00;1.00;;;;;;5094404;28;20822;-70
2023/04/05 08:04:19;;;;;;;8.67;7.87;;;6.10;1.00;;;;;;5095000;28;20403;-68
2023/04/05 08:06:46;;;;;;;9.33;8.10;;;6.30;1.00;;;;;;5095227;28;20157;-69
2023/04/05 08:09:11;;;;;;;13.73;8.43;;;6.30;1.00;;;;;;5095052;28;20400;-68
2023/04/05 08:11:37;;;;;;;9.47;8.40;;;6.40;1.00;;;;;;5094208;28;20828;-70
2023/04/05 08:14:04;;;;;;;12.33;8.43;;;6.60;1.00;;;;;;5094313;28;20184;-69
2023/04/05 08:16:30;;;;;;;9.47;7.40;;;6.60;1.00;;;;;;5076668;28;20422;-69
2023/04/05 08:18:55;;;;;;;9.27;8.33;;;6.60;1.00;;;;;;5076631;28;20835;-69
2023/04/05 08:21:22;;;;;;;9.27;8.20;;;6.70;1.00;;;;;;5094029;28;20208;-70
2023/04/05 08:23:48;;;;;;;9.23;7.60;;;6.70;1.00;;;;;;5094780;28;20169;-70
2023/04/05 08:26:15;;;;;;;14.70;8.03;;;6.80;1.00;;;;;;5094612;28;20404;-69
2023/04/05 08:28:41;;;;;;;7.83;6.40;;;6.80;1.00;;;;;;5094600;28;20452;-70
2023/04/05 08:31:06;;;;;;;8.30;6.70;;;7.00;1.00;;;;;;5093964;28;20454;-70
2023/04/05 08:33:32;;;;;;;11.60;7.17;;;7.20;1.00;;;;;;5093546;28;20189;-69
2023/04/05 08:36:06;;;;;;;15.80;6.93;;;7.20;1.00;;;;;;5076691;28;20385;-70
2023/04/05 08:38:32;;;;;;;7.37;6.67;;;7.40;1.00;;;;;;5076361;28;20166;-70
2023/04/05 08:41:12;;;;;;;8.43;5.77;;;7.50;1.00;;;;;;5093721;28;20513;-69
2023/04/05 08:43:47;;;;;;;8.07;7.00;;;7.50;1.00;;;;;;5094318;28;20948;-70
2023/04/05 08:46:17;;;;;;;8.37;6.50;;;7.60;1.00;;;;;;5094387;28;20404;-70
2023/04/05 08:48:44;;;;;;;7.37;6.10;;;7.60;1.00;;;;;;5094269;28;20981;-69
2023/04/05 08:51:09;;;;;;;7.43;6.70;;;7.70;1.00;;;;;;5093446;28;20494;-70
2023/04/05 08:53:35;;;;;;;9.30;6.50;;;7.70;1.00;;;;;;5093109;28;20454;-69
2023/04/05 08:56:02;;;;;;;7.27;6.03;;;7.80;1.00;;;;;;5076046;28;20225;-68
2023/04/05 08:58:29;;;;;;;10.37;6.00;;;7.80;1.00;;;;;;5094021;28;20531;-70
2023/04/05 09:00:56;;;;;;;5.80;5.20;;;7.90;1.00;;;;;;5093325;28;20410;-69
2023/04/05 09:03:24;;;;;;;7.07;6.47;;;7.90;1.00;;;;;;5094096;28;20478;-70
2023/04/05 09:05:51;;;;;;;7.97;5.70;;;7.90;1.00;;;;;;5075770;28;20766;-69
2023/04/05 09:08:17;;;;;;;6.63;5.77;;;7.90;1.00;;;;;;5075532;28;20975;-69
2023/04/05 09:10:43;;;;;;;7.30;6.30;;;8.00;1.00;;;;;;5092109;28;20406;-68
2023/04/05 09:13:09;;;;;;;6.83;5.17;;;8.10;1.00;;;;;;5093660;28;20416;-71
2023/04/05 09:15:39;;;;;;;6.33;5.40;;;8.20;1.00;;;;;;5093777;28;20397;-69
2023/04/05 09:18:05;;;;;;;7.70;5.90;;;8.20;1.00;;;;;;5093732;28;20385;-70
2023/04/05 09:20:30;;;;;;;7.20;4.87;;;8.30;1.00;;;;;;5092968;28;20371;-69
2023/04/05 09:22:56;;;;;;;7.90;6.40;;;8.40;1.00;;;;;;5093487;28;20271;-69
2023/04/05 09:25:31;;;;;;;11.83;6.30;;;8.50;1.00;;;;;;5093777;28;20175;-69
2023/04/05 09:27:58;;;;;;;7.80;5.40;;;8.70;1.00;;;;;;5093134;28;20449;-68
2023/04/05 09:30:25;;;;;;;10.13;5.20;;;8.90;1.00;;;;;;5092365;28;20781;-68
2023/04/05 09:32:54;;;;;;;7.63;6.20;;;9.20;1.00;;;;;;5092780;28;20512;-68
2023/04/05 09:35:39;;;;;;;6.80;4.83;;;9.80;1.00;;;;;;5093533;28;20355;-67
2023/04/05 09:38:05;;;;;;;5.70;4.73;;;10.50;1.00;;;;;;5093410;28;20393;-69
2023/04/05 09:40:45;;;;;;;6.97;5.53;;;10.50;1.00;;;;;;5092730;28;20400;-69
2023/04/05 09:43:12;;;;;;;6.70;5.23;;;9.90;1.00;;;;;;5093281;28;20859;-68
2023/04/05 09:45:40;;;;;;;9.63;5.27;;;10.10;1.00;;;;;;5092498;28;20756;-68
2023/04/05 09:48:09;;;;;;;5.53;5.03;;;10.60;1.00;;;;;;5093444;28;20429;-69
2023/04/05 09:50:35;;;;;;;5.50;4.73;;;10.80;1.00;;;;;;5092590;28;20477;-68
2023/04/05 09:53:14;;;;;;;8.70;5.73;;;10.60;1.00;;;;;;5092982;28;20530;-68
2023/04/05 09:55:42;;;;;;;6.63;5.87;;;10.50;1.00;;;;;;5093191;28;20168;-67
2023/04/05 09:58:21;;;;;;;5.43;4.93;;;10.70;1.00;;;;;;5093310;28;20400;-67
2023/04/05 10:00:52;;;;;;;5.27;4.70;;;11.30;1.00;;;;;;5092521;28;20407;-69
2023/04/05 10:06:57;;;;;;;6.43;4.93;;;12.50;1.00;;;;;;5093450;28;20433;-67
2023/04/05 10:09:24;;;;;;;5.07;4.57;;;12.60;1.00;;;;;;5093155;28;20918;-68
2023/04/05 10:11:50;;;;;;;5.77;4.30;;;12.50;1.00;;;;;;5092335;28;20415;-67
2023/04/05 10:14:16;;;;;;;5.87;3.93;;;12.50;1.00;;;;;;5092940;28;20522;-68
2023/04/05 10:16:58;;;;;;;6.28;4.28;;;12.70;1.00;;;;;;5092016;28;20392;-73
2023/04/05 10:20:05;;;;;;;8.17;4.40;;;13.00;1.00;;;;;;5092714;28;20278;-72
2023/04/05 10:22:58;;;;;;;5.77;3.80;;;12.90;1.00;;;;;;5092640;28;20427;-73
2023/04/05 10:25:45;;;;;;;4.97;4.13;;;12.90;1.00;;;;;;5074594;28;20412;-73
2023/04/05 10:28:23;;;;;;;4.57;3.60;;;13.20;1.00;;;;;;5092888;28;20454;-69
2023/04/05 10:31:27;;;;;;;4.53;3.43;;;13.50;1.00;;;;;;5092317;28;20421;-73
2023/04/05 10:34:34;;;;;;;3.50;3.10;;;13.80;1.00;;;;;;5072079;28;20836;-68
2023/04/05 10:37:01;;;;;;;3.83;3.53;;;13.80;1.00;;;;;;5092215;28;20415;-69
2023/04/05 10:39:41;;;;;;;4.40;4.00;;;14.10;1.00;;;;;;5091868;28;20438;-69
2023/04/05 10:42:17;;;;;;;8.93;4.60;;;14.30;1.00;;;;;;5092129;28;20908;-68
2023/04/05 10:44:46;;;;;;;7.53;3.87;;;14.30;1.00;;;;;;5095504;28;20453;-69
2023/04/05 10:47:35;;;;;;;8.60;4.10;;;14.30;1.00;;;;;;5096564;28;20451;-69
2023/04/05 10:50:55;;;;;;;6.13;3.90;;;13.40;1.00;;;;;;5096360;28;20395;-69
2023/04/05 10:57:02;;;;;;;5.70;4.33;;;14.30;1.00;;;;;;5096009;28;20382;-69
2023/04/05 10:59:29;;;;;;;4.33;3.93;;;14.10;1.00;;;;;;5096224;28;20403;-70
2023/04/05 11:01:57;;;;;;;7.37;4.20;;;14.40;1.00;;;;;;5095597;28;20419;-68
2023/04/05 11:04:27;;;;;;;4.67;3.50;;;15.00;1.00;;;;;;5096333;28;20756;-70
2023/04/05 11:07:50;;;;;;;;;;;;;;;;;;;;;
2023/04/05 11:10:51;;;;;;;3.67;1.97;;;15.80;1.00;;;;;;5095112;28;20403;-68
2023/04/05 11:13:17;;;;;;;1.80;1.70;;;15.60;1.00;;;;;;5096106;28;20422;-70
2023/04/05 11:15:43;;;;;;;4.13;2.03;;;15.50;1.00;;;;;;5077800;28;20928;-68
2023/04/05 11:18:18;;;;;;;2.53;1.70;;;15.50;1.00;;;;;;5095258;28;20399;-69
2023/04/05 11:20:51;;;;;;;1.70;1.23;;;14.90;1.00;;;;;;5095570;28;20491;-70
2023/04/05 11:23:30;;;;;;;1.43;1.30;;;14.80;1.00;;;;;;5095791;28;20424;-70
2023/04/05 11:29:07;;;;;;;1.17;1.03;;;14.70;1.00;;;;;;5095702;28;20632;-67
2023/04/05 11:31:36;;;;;;;3.03;1.00;;;14.30;99.90;;;;;;5094659;28;20404;-68
2023/04/05 11:34:23;;;;;;;1.80;0.80;;;14.60;99.90;;;;;;5095634;28;20407;-68
2023/04/05 11:36:49;;;;;;;2.23;1.03;;;15.00;99.90;;;;;;5094061;28;20414;-69
2023/04/05 11:39:20;;;;;;;1.97;0.90;;;14.80;99.90;;;;;;5095421;28;20396;-71
2023/04/05 11:45:28;;;;;;;2.07;0.90;;;14.80;99.90;;;;;;4993854;28;20447;-72
2023/04/05 11:47:57;;;;;;;1.40;0.90;;;14.90;99.90;;;;;;4993687;28;20513;-68
2023/04/05 11:50:24;;;;;;;1.30;0.70;;;15.20;99.90;;;;;;5067722;28;20793;-73
2023/04/05 11:53:14;;;;;;;1.00;0.70;;;15.10;99.90;;;;;;5095209;28;20522;-69
2023/04/05 11:55:42;;;;;;;1.30;1.20;;;15.40;99.90;;;;;;5094182;28;20395;-70
2023/04/05 11:58:12;;;;;;;1.10;0.93;;;15.60;99.90;;;;;;5095170;28;20414;-70
2023/04/05 12:00:40;;;;;;;1.10;0.90;;;15.70;99.90;;;;;;5094595;28;20468;-69
2023/04/05 12:06:43;;;;;;;2.23;1.20;;;14.80;99.90;;;;;;5012835;28;20438;-70
2023/04/05 12:12:19;;;;;;;1.20;1.10;;;13.70;99.90;;;;;;4972184;28;20432;-70
2023/04/05 12:15:29;;;;;;;;;;;;;;;;;;;;;
2023/04/05 12:17:58;;;;;;;1.47;1.37;;;13.50;99.90;;;;;;5082734;28;20407;-70
2023/04/05 12:20:24;;;;;;;1.50;1.40;;;13.30;99.90;;;;;;5094254;28;20820;-72
2023/04/05 12:22:55;;;;;;;2.00;1.50;;;13.20;99.90;;;;;;5093488;28;20459;-70
2023/04/05 12:25:41;;;;;;;;;;;;;;;;;;;;;
2023/04/05 12:28:20;;;;;;;1.80;1.70;;;14.00;99.90;;;;;;5094206;28;20414;-70
2023/04/05 12:31:15;;;;;;;1.87;1.27;;;14.20;99.90;;;;;;5093374;28;20408;-72
2023/04/05 12:33:45;;;;;;;4.83;1.77;;;14.40;99.90;;;;;;5076762;28;20415;-73
2023/04/05 12:36:14;;;;;;;3.83;1.40;;;14.80;99.90;;;;;;5094457;28;20884;-70
2023/04/05 12:38:43;;;;;;;1.30;1.20;;;15.50;99.90;;;;;;5094500;28;20892;-70
2023/04/05 12:41:31;;;;;;;1.63;1.47;;;16.40;99.90;;;;;;5093829;28;20490;-70
2023/04/05 12:44:15;;;;;;;1.87;1.63;;;17.20;99.90;;;;;;5094366;28;20412;-70
2023/04/05 12:47:20;;;;;;;1.77;1.40;;;17.80;99.90;;;;;;5094350;28;20412;-73
2023/04/05 13:00:09;;;;;;;2.40;1.20;;;16.70;99.90;;;;;;4974848;28;20417;-69
2023/04/05 13:02:35;;;;;;;1.67;1.10;;;16.00;99.90;;;;;;5040912;28;20459;-69
2023/04/05 13:05:11;;;;;;;;;;;;;;;;;;;;;
2023/04/05 13:07:38;;;;;;;1.53;1.00;;;16.50;99.90;;;;;;5092453;28;20449;-72
2023/04/05 13:10:12;;;;;;;2.13;1.13;;;16.90;99.90;;;;;;5093711;28;20502;-72
2023/04/05 13:12:38;;;;;;;2.47;1.50;;;17.40;99.90;;;;;;5093792;28;20434;-70
2023/04/05 13:15:08;;;;;;;1.60;1.40;;;17.60;99.90;;;;;;5093846;28;20803;-70
2023/04/05 13:17:53;;;;;;;2.03;1.30;;;17.70;99.90;;;;;;5093730;28;20400;-70
2023/04/05 13:20:23;;;;;;;2.07;1.10;;;18.00;99.90;;;;;;5093015;28;20411;-69
2023/04/05 13:22:49;;;;;;;3.77;1.03;;;17.70;99.90;;;;;;5093630;28;20428;-69
2023/04/05 13:25:16;;;;;;;1.73;0.80;;;17.50;99.90;;;;;;5075313;28;20712;-70
2023/04/05 13:27:42;;;;;;;1.40;1.30;;;16.90;99.90;;;;;;5093493;28;20965;-72
2023/04/05 13:30:09;;;;;;;2.87;1.50;;;16.20;99.90;;;;;;5093002;28;20453;-70
2023/04/05 13:32:35;;;;;;;2.30;1.37;;;16.00;99.90;;;;;;5093293;28;20908;-69
2023/04/05 13:38:09;;;;;;;1.37;1.20;;;16.50;99.90;;;;;;5055172;28;20410;-69
2023/04/05 13:40:35;;;;;;;2.93;1.40;;;15.80;99.90;;;;;;5092694;28;20816;-72
2023/04/05 13:43:01;;;;;;;3.00;1.40;;;15.60;99.90;;;;;;5092802;28;20915;-70
2023/04/05 13:45:27;;;;;;;2.60;1.40;;;15.20;99.90;;;;;;5093158;28;20458;-72
2023/04/05 13:47:53;;;;;;;1.70;1.60;;;15.10;99.90;;;;;;5093205;28;20958;-72
2023/04/05 13:50:19;;;;;;;2.33;1.30;;;14.70;99.90;;;;;;5092683;28;20482;-69